Accueil
METAR-TAF:

METAR-TAF

Aéroports :

Cambridge, Angleterre

Aéroport international de Cambridge

latitude: 52-12N, longitude: 000-11E, altitude: 15 m

Observation

Le bulletin a été fait il y a 11 heures et 16 minutes, à 17:50 UTC
Vent 4 kt de sud/sud-ouest
Température 7°C
Humidité 66%
Pression 1022 hPa
Visibilité 10 km ou plus
Nuages épars à une hauteur de 4200 ft

METAR: EGSC 171750Z 20004KT 9999 SCT042 07/01 Q1022

Heure: 05:06 (05:06 UTC)

Prévision

Le bulletin a été fait il y a 15 heures et 14 minutes, à 13:52 UTC
Prévision valable du 17 à 15 UTC au 17 à 19 UTC
Vent 6 kt de sud/sud-ouest
Visibilité 10 km ou plus
Quelques nuages à une hauteur de 3000 ft

TAF: EGSC 171352Z 1715/1719 20006KT 9999 FEW030

Observations et prévisions météorologiques de plus de 4000 aéroports (messages METAR et TAF).

Les stations disponibles sont représentées par des disques jaunes et rouges sur la carte.

Passer la souris dessus pour voir le nom de la station.

Cliquer dessus pour voir les observations et prévisions météorologiques.

Pour changer de carte: cliquez sur les boutons verts avec une croix noire pour zoomer, sur le bouton vert avec un tiret pour effectuer un zoom arrière, ou sur les flèches vertes pour les cartes adjacentes.


METAR-TAF: